Rechercher aéroport 
image banner adimage banner adimage banner ad
image banner ad

48CL - Grass Valley Service Center

Situé à Grass Valley, United States

ICAO - 48CL, IATA -

Données fournies par Airmate  

Information générale

Coordonnées: N39°12'1" W121°3'41"
Élévation : 2430 feet MSL.
Variation magnétique : 16° East
Voir autres Aéroports à California

Données opérationnelles

Special qualification required
Heure actuelle UTC:
Heure actuelle locale:
Météo à : KGOO - Nevada County Air Park ( 6 km )
METAR: KGOO 270430Z AUTO 13007KT 10SM BKN075 23/M08 A3005 RMK A01
Voir NOTAMs / SUP AIP / TFR affectant cet aéroport [VIEW]
Fréquences de communication: [VIEW]

Pistes:

Coordonnées de l'aéroport

Adresse: Grass Valley United States

Vue satellite de 48CL